createdAt,value
2023-05-21T00:01:17.472Z,17.31
2023-05-21T00:03:46.437Z,17.31
2023-05-21T00:06:16.274Z,17.30
2023-05-21T00:08:43.280Z,17.33
2023-05-21T00:11:10.105Z,17.30
2023-05-21T00:13:36.901Z,17.26
2023-05-21T00:16:03.750Z,17.30
2023-05-21T00:18:32.573Z,17.19
2023-05-21T00:20:59.816Z,17.12
2023-05-21T00:23:27.049Z,17.09
2023-05-21T00:25:53.879Z,17.07
2023-05-21T00:28:20.727Z,16.98
2023-05-21T00:30:47.559Z,17.08
2023-05-21T00:33:14.925Z,17.10
2023-05-21T00:35:41.890Z,17.08
2023-05-21T00:38:08.815Z,17.10
2023-05-21T00:40:36.543Z,17.03
2023-05-21T00:43:03.632Z,17.00
2023-05-21T00:45:30.657Z,16.94
2023-05-21T00:47:57.663Z,16.92
2023-05-21T00:50:24.692Z,16.84
2023-05-21T00:52:51.984Z,16.81
2023-05-21T00:55:18.798Z,16.79
2023-05-21T00:57:46.283Z,16.77
2023-05-21T01:00:14.839Z,16.72
2023-05-21T01:02:42.406Z,16.66
2023-05-21T01:05:10.336Z,16.57
2023-05-21T01:07:39.311Z,16.57
2023-05-21T01:10:08.006Z,16.54
2023-05-21T01:12:35.572Z,16.49
2023-05-21T01:15:06.118Z,16.50
2023-05-21T01:17:34.514Z,16.50
2023-05-21T01:20:01.866Z,16.40
2023-05-21T01:22:32.717Z,16.40
2023-05-21T01:25:02.999Z,16.35
2023-05-21T01:27:29.951Z,16.30
2023-05-21T01:29:56.895Z,16.30
2023-05-21T01:32:41.484Z,16.24
2023-05-21T01:35:09.474Z,16.21
2023-05-21T01:37:50.795Z,16.15
2023-05-21T01:40:28.660Z,16.12
2023-05-21T01:42:56.281Z,16.06
2023-05-21T01:45:24.290Z,16.03
2023-05-21T01:47:52.452Z,16.02
2023-05-21T01:50:19.315Z,16.00
2023-05-21T01:52:51.616Z,15.93
2023-05-21T01:55:18.791Z,15.88
2023-05-21T01:57:45.770Z,15.89
2023-05-21T02:00:13.103Z,15.86
2023-05-21T02:02:42.818Z,15.85
2023-05-21T02:05:10.190Z,15.82
2023-05-21T02:07:37.714Z,15.80
2023-05-21T02:10:04.600Z,15.79
2023-05-21T02:12:31.370Z,15.82
2023-05-21T02:14:58.127Z,15.77
2023-05-21T02:17:25.180Z,15.68
2023-05-21T02:19:52.378Z,15.68
2023-05-21T02:22:19.148Z,15.75
2023-05-21T02:24:45.995Z,15.72
2023-05-21T02:27:13.857Z,15.71
2023-05-21T02:29:40.668Z,15.70
2023-05-21T02:32:07.849Z,15.68
2023-05-21T02:34:35.248Z,15.65
2023-05-21T02:37:02.249Z,15.67
2023-05-21T02:39:29.102Z,15.66
2023-05-21T02:41:56.402Z,15.66
2023-05-21T02:44:24.287Z,15.64
2023-05-21T02:46:51.161Z,15.62
2023-05-21T02:49:18.592Z,15.54
2023-05-21T02:51:50.245Z,15.56
2023-05-21T02:54:17.024Z,15.57
2023-05-21T02:56:47.367Z,15.51
2023-05-21T02:59:14.191Z,15.44
2023-05-21T03:01:45.420Z,15.51
2023-05-21T03:04:12.284Z,15.49
2023-05-21T03:06:39.086Z,15.48
2023-05-21T03:09:06.208Z,15.38
2023-05-21T03:11:33.001Z,15.39
2023-05-21T03:13:59.781Z,15.39
2023-05-21T03:16:26.725Z,15.38
2023-05-21T03:18:53.660Z,15.34
2023-05-21T03:21:22.874Z,15.41
2023-05-21T03:23:49.843Z,15.49
2023-05-21T03:26:16.806Z,15.43
2023-05-21T03:28:43.789Z,15.49
2023-05-21T03:31:10.670Z,15.47
2023-05-21T03:34:02.987Z,15.50
2023-05-21T03:36:31.673Z,15.47
2023-05-21T03:38:58.560Z,15.47
2023-05-21T03:41:26.357Z,15.38
2023-05-21T03:44:02.650Z,15.49
2023-05-21T03:46:36.818Z,15.37
2023-05-21T03:49:10.058Z,15.54
2023-05-21T03:51:41.304Z,15.42
2023-05-21T03:54:11.614Z,15.57
2023-05-21T03:56:39.252Z,15.67
2023-05-21T03:59:06.064Z,15.66
2023-05-21T04:01:33.552Z,15.75
2023-05-21T04:04:01.408Z,15.76
2023-05-21T04:06:28.786Z,15.71
2023-05-21T04:08:55.668Z,15.62
2023-05-21T04:11:22.744Z,15.70
2023-05-21T04:13:49.521Z,15.78
2023-05-21T04:16:19.571Z,15.70
2023-05-21T04:18:47.150Z,15.74
2023-05-21T04:21:15.642Z,15.82
2023-05-21T04:23:42.444Z,15.85
2023-05-21T04:26:35.682Z,16.03
2023-05-21T04:29:04.006Z,16.12
2023-05-21T04:31:32.550Z,16.14
2023-05-21T04:34:02.960Z,16.07
2023-05-21T04:36:30.381Z,16.21
2023-05-21T04:38:57.302Z,16.17
2023-05-21T04:41:27.337Z,16.22
2023-05-21T04:43:55.537Z,16.28
2023-05-21T04:46:25.919Z,16.24
2023-05-21T04:48:55.431Z,16.26
2023-05-21T04:51:24.915Z,16.35
2023-05-21T04:53:52.215Z,16.43
2023-05-21T04:56:19.080Z,16.45
2023-05-21T04:58:48.173Z,16.56
2023-05-21T05:01:16.057Z,16.61
2023-05-21T05:03:42.996Z,16.77
2023-05-21T05:06:09.840Z,16.75
2023-05-21T05:08:36.690Z,16.86
2023-05-21T05:11:04.363Z,17.02
2023-05-21T05:13:31.545Z,16.95
2023-05-21T05:15:58.450Z,17.00
2023-05-21T05:18:26.694Z,17.12
2023-05-21T05:20:54.730Z,17.29
2023-05-21T05:23:21.655Z,17.24
2023-05-21T05:25:54.715Z,17.35
2023-05-21T05:28:22.009Z,17.31
2023-05-21T05:30:48.918Z,17.42
2023-05-21T05:33:24.606Z,17.56
2023-05-21T05:35:51.518Z,17.56
2023-05-21T05:38:18.294Z,17.64
2023-05-21T05:40:48.213Z,17.76
2023-05-21T05:43:15.036Z,17.80
2023-05-21T05:45:41.812Z,17.82
2023-05-21T05:48:13.491Z,17.88
2023-05-21T05:50:40.329Z,17.92
2023-05-21T05:53:07.556Z,17.94
2023-05-21T05:55:34.931Z,17.96
2023-05-21T05:58:01.949Z,17.99
2023-05-21T06:00:28.881Z,18.03
2023-05-21T06:03:00.531Z,18.10
2023-05-21T06:05:27.554Z,18.10
2023-05-21T06:07:54.334Z,18.18
2023-05-21T06:10:21.288Z,18.23
2023-05-21T06:12:48.090Z,18.29
2023-05-21T06:15:16.724Z,18.32
2023-05-21T06:17:43.806Z,18.20
2023-05-21T06:20:16.654Z,18.36
2023-05-21T06:22:44.137Z,18.34
2023-05-21T06:25:11.182Z,18.42
2023-05-21T06:27:38.945Z,18.50
2023-05-21T06:30:14.161Z,18.55
2023-05-21T06:32:41.123Z,18.56
2023-05-21T06:35:08.341Z,18.62
2023-05-21T06:37:35.370Z,18.74
2023-05-21T06:40:02.842Z,18.84
2023-05-21T06:42:31.178Z,19.05
2023-05-21T06:45:16.615Z,19.16
2023-05-21T06:47:45.486Z,19.43
2023-05-21T06:50:12.347Z,19.63
2023-05-21T06:52:39.179Z,19.72
2023-05-21T06:55:07.275Z,19.97
2023-05-21T06:57:54.064Z,20.16
2023-05-21T07:00:20.992Z,20.35
2023-05-21T07:02:48.781Z,20.55
2023-05-21T07:05:16.001Z,20.80
2023-05-21T07:07:43.094Z,21.01
2023-05-21T07:10:10.229Z,21.22
2023-05-21T07:12:38.089Z,21.47
2023-05-21T07:15:05.118Z,21.78
2023-05-21T07:17:31.980Z,21.87
2023-05-21T07:19:58.783Z,22.20
2023-05-21T07:22:27.923Z,22.29
2023-05-21T07:24:55.269Z,22.42
2023-05-21T07:27:25.775Z,22.56
2023-05-21T07:29:54.421Z,22.82
2023-05-21T07:32:21.726Z,22.82
2023-05-21T07:34:48.699Z,22.80
2023-05-21T07:37:15.562Z,22.99
2023-05-21T07:39:42.417Z,23.15
2023-05-21T07:42:11.075Z,23.26
2023-05-21T07:44:37.970Z,23.64
2023-05-21T07:47:04.937Z,23.56
2023-05-21T07:49:32.133Z,23.78
2023-05-21T07:51:59.147Z,23.95
2023-05-21T07:54:26.105Z,23.90
2023-05-21T07:56:53.080Z,24.08
2023-05-21T07:59:41.998Z,24.42
2023-05-21T08:02:09.109Z,24.21
2023-05-21T08:04:37.954Z,24.47
2023-05-21T08:07:06.349Z,24.49
2023-05-21T08:09:33.257Z,24.69
2023-05-21T08:12:00.256Z,24.96
2023-05-21T08:14:27.160Z,25.01
2023-05-21T08:16:54.396Z,25.19
2023-05-21T08:19:21.587Z,25.62
2023-05-21T08:21:50.237Z,25.52
2023-05-21T08:24:18.284Z,25.70
2023-05-21T08:26:45.357Z,25.73
2023-05-21T08:29:12.428Z,25.94
2023-05-21T08:31:40.916Z,26.03
2023-05-21T08:34:07.775Z,26.25
2023-05-21T08:36:43.471Z,26.25
2023-05-21T08:39:27.007Z,26.09
2023-05-21T08:41:57.764Z,26.12
2023-05-21T08:44:26.860Z,26.34
2023-05-21T08:46:55.225Z,26.30
2023-05-21T08:49:27.023Z,26.30
2023-05-21T08:51:55.914Z,26.10
2023-05-21T08:54:22.925Z,26.33
2023-05-21T08:56:49.895Z,26.57
2023-05-21T08:59:18.609Z,26.58
2023-05-21T09:01:47.235Z,26.86
2023-05-21T09:04:28.326Z,26.71
2023-05-21T09:06:58.193Z,26.86
2023-05-21T09:09:56.216Z,26.88
2023-05-21T09:12:26.481Z,26.81
2023-05-21T09:14:53.760Z,26.57
2023-05-21T09:17:26.341Z,26.64
2023-05-21T09:20:16.657Z,26.85
2023-05-21T09:22:52.654Z,27.03
2023-05-21T09:25:25.257Z,27.16
2023-05-21T09:27:52.212Z,27.25
2023-05-21T09:30:21.611Z,27.20
2023-05-21T09:32:57.305Z,27.33
2023-05-21T09:35:24.202Z,27.53
2023-05-21T09:37:52.587Z,27.34
2023-05-21T09:40:21.369Z,27.27
2023-05-21T09:42:52.725Z,27.39
2023-05-21T09:45:20.676Z,27.09
2023-05-21T09:47:50.049Z,27.52
2023-05-21T09:50:21.598Z,27.76
2023-05-21T09:52:50.952Z,28.16
2023-05-21T09:55:17.742Z,28.43
2023-05-21T09:57:47.188Z,28.47
2023-05-21T10:00:23.021Z,28.61
2023-05-21T10:02:51.524Z,28.85
2023-05-21T10:05:18.442Z,29.04
2023-05-21T10:07:50.489Z,28.99
2023-05-21T10:10:19.926Z,29.06
2023-05-21T10:12:48.293Z,29.55
2023-05-21T10:15:17.705Z,29.39
2023-05-21T10:17:46.279Z,29.74
2023-05-21T10:20:15.600Z,30.00
2023-05-21T10:22:42.777Z,29.88
2023-05-21T10:25:10.234Z,30.10
2023-05-21T10:27:37.665Z,30.12
2023-05-21T10:30:06.009Z,29.90
2023-05-21T10:33:11.249Z,29.88
2023-05-21T10:35:41.582Z,29.95
2023-05-21T10:38:10.125Z,29.67
2023-05-21T10:40:37.107Z,29.17
2023-05-21T10:43:14.163Z,29.18
2023-05-21T10:46:06.598Z,29.05
2023-05-21T10:48:52.099Z,29.14
2023-05-21T10:51:55.082Z,28.90
2023-05-21T10:54:47.606Z,28.43
2023-05-21T10:57:34.875Z,28.55
2023-05-21T11:00:04.214Z,28.65
2023-05-21T11:02:31.271Z,28.99
2023-05-21T11:04:59.342Z,29.27
2023-05-21T11:07:58.902Z,29.65
2023-05-21T11:10:38.579Z,29.87
2023-05-21T11:13:16.473Z,29.96
2023-05-21T11:15:58.877Z,30.31
2023-05-21T11:18:38.163Z,30.45
2023-05-21T11:21:10.937Z,30.56
2023-05-21T11:24:13.595Z,30.84
2023-05-21T11:26:50.310Z,31.42
2023-05-21T11:29:17.851Z,31.51
2023-05-21T11:32:04.451Z,31.60
2023-05-21T11:34:42.210Z,31.66
2023-05-21T11:37:18.425Z,31.19
2023-05-21T11:39:45.757Z,30.96
2023-05-21T11:42:12.970Z,30.96
2023-05-21T11:44:41.212Z,30.67
2023-05-21T11:47:10.202Z,30.41
2023-05-21T11:49:38.322Z,30.18
2023-05-21T11:52:06.864Z,30.19
2023-05-21T11:54:37.903Z,30.16
2023-05-21T11:57:09.080Z,29.99
2023-05-21T11:59:36.737Z,30.19
2023-05-21T12:02:04.316Z,29.84
2023-05-21T12:04:36.607Z,29.97
2023-05-21T12:07:09.976Z,29.81
2023-05-21T12:09:47.922Z,29.84
2023-05-21T12:12:17.219Z,29.77
2023-05-21T12:14:48.192Z,29.84
2023-05-21T12:17:23.055Z,29.94
2023-05-21T12:19:53.067Z,29.96
2023-05-21T12:22:20.089Z,29.93
2023-05-21T12:24:48.544Z,29.74
2023-05-21T12:27:17.230Z,29.82
2023-05-21T12:29:45.747Z,29.85
2023-05-21T12:32:16.342Z,29.94
2023-05-21T12:34:49.095Z,29.77
2023-05-21T12:37:22.316Z,29.57
2023-05-21T12:39:50.746Z,29.40
2023-05-21T12:42:17.632Z,29.20
2023-05-21T12:44:46.477Z,28.92
2023-05-21T12:47:14.061Z,29.03
2023-05-21T12:49:42.352Z,29.15
2023-05-21T12:52:13.707Z,29.07
2023-05-21T12:54:43.305Z,29.09
2023-05-21T12:57:14.465Z,29.05
2023-05-21T12:59:49.759Z,29.08
2023-05-21T13:02:31.247Z,29.02
2023-05-21T13:05:05.777Z,29.05
2023-05-21T13:07:34.005Z,29.09
2023-05-21T13:10:02.898Z,29.07
2023-05-21T13:12:31.813Z,29.02
2023-05-21T13:15:00.299Z,29.16
2023-05-21T13:17:28.367Z,28.84
2023-05-21T13:20:09.531Z,28.88
2023-05-21T13:22:39.337Z,28.67
2023-05-21T13:25:07.552Z,28.83
2023-05-21T13:27:34.471Z,28.88
2023-05-21T13:30:02.319Z,28.94
2023-05-21T13:32:29.569Z,28.96
2023-05-21T13:34:56.500Z,28.90
2023-05-21T13:37:23.425Z,28.76
2023-05-21T13:39:50.411Z,28.70
2023-05-21T13:42:17.454Z,28.62
2023-05-21T13:44:48.277Z,28.68
2023-05-21T13:47:15.151Z,28.72
2023-05-21T13:49:42.187Z,28.52
2023-05-21T13:52:09.770Z,28.50
2023-05-21T13:54:37.041Z,28.23
2023-05-21T13:57:04.404Z,28.12
2023-05-21T13:59:33.631Z,28.16
2023-05-21T14:02:01.252Z,28.13
2023-05-21T14:04:31.416Z,28.16
2023-05-21T14:06:58.291Z,28.21
2023-05-21T14:09:27.471Z,28.21
2023-05-21T14:11:55.467Z,28.22
2023-05-21T14:14:22.941Z,28.22
2023-05-21T14:16:50.855Z,28.17
2023-05-21T14:19:18.184Z,28.12
2023-05-21T14:21:45.159Z,28.10
2023-05-21T14:24:12.043Z,28.10
2023-05-21T14:26:41.197Z,27.93
2023-05-21T14:29:08.283Z,28.01
2023-05-21T14:31:35.196Z,28.05
2023-05-21T14:34:03.103Z,28.06
2023-05-21T14:36:30.097Z,28.14
2023-05-21T14:38:57.095Z,28.08
2023-05-21T14:41:28.263Z,28.03
2023-05-21T14:43:55.497Z,27.88
2023-05-21T14:46:22.506Z,27.93
2023-05-21T14:48:50.594Z,27.90
2023-05-21T14:51:19.435Z,27.93
2023-05-21T14:53:46.218Z,27.87
2023-05-21T14:56:14.218Z,27.89
2023-05-21T14:58:41.277Z,27.75
2023-05-21T15:01:08.215Z,27.75
2023-05-21T15:03:35.227Z,27.75
2023-05-21T15:06:02.245Z,27.78
2023-05-21T15:08:29.128Z,27.71
2023-05-21T15:10:55.981Z,27.78
2023-05-21T15:13:22.783Z,27.81
2023-05-21T15:15:50.332Z,27.87
2023-05-21T15:18:17.320Z,27.83
2023-05-21T15:20:44.573Z,27.76
2023-05-21T15:23:17.491Z,27.55
2023-05-21T15:25:45.784Z,27.55
2023-05-21T15:28:12.998Z,27.58
2023-05-21T15:30:40.193Z,27.61
2023-05-21T15:33:07.123Z,27.63
2023-05-21T15:35:36.693Z,27.64
2023-05-21T15:38:03.903Z,27.64
2023-05-21T15:40:32.148Z,27.69
2023-05-21T15:42:59.086Z,27.67
2023-05-21T15:45:26.024Z,27.47
2023-05-21T15:47:53.084Z,27.42
2023-05-21T15:50:20.083Z,27.48
2023-05-21T15:52:46.919Z,27.34
2023-05-21T15:55:14.393Z,27.35
2023-05-21T15:57:41.356Z,27.39
2023-05-21T16:00:10.677Z,27.41
2023-05-21T16:02:37.751Z,27.35
2023-05-21T16:05:04.808Z,27.35
2023-05-21T16:07:31.643Z,27.16
2023-05-21T16:09:58.597Z,27.28
2023-05-21T16:12:26.633Z,27.19
2023-05-21T16:14:53.413Z,27.19
2023-05-21T16:17:20.364Z,27.09
2023-05-21T16:19:47.832Z,27.04
2023-05-21T16:22:14.994Z,27.13
2023-05-21T16:24:42.164Z,27.07
2023-05-21T16:27:09.231Z,27.09
2023-05-21T16:29:36.782Z,26.99
2023-05-21T16:32:05.522Z,27.02
2023-05-21T16:34:32.484Z,26.87
2023-05-21T16:37:02.692Z,26.90
2023-05-21T16:39:29.587Z,26.83
2023-05-21T16:41:59.825Z,26.83
2023-05-21T16:44:27.331Z,26.72
2023-05-21T16:46:54.454Z,26.66
2023-05-21T16:49:21.252Z,26.63
2023-05-21T16:51:48.165Z,26.56
2023-05-21T16:54:15.399Z,26.53
2023-05-21T16:56:42.208Z,26.55
2023-05-21T16:59:09.339Z,26.59
2023-05-21T17:01:36.185Z,26.57
2023-05-21T17:04:03.232Z,26.40
2023-05-21T17:06:30.202Z,26.47
2023-05-21T17:08:57.284Z,26.57
2023-05-21T17:11:24.178Z,26.53
2023-05-21T17:13:51.211Z,26.53
2023-05-21T17:16:18.136Z,26.43
2023-05-21T17:18:44.964Z,26.35
2023-05-21T17:21:12.036Z,26.25
2023-05-21T17:23:38.956Z,26.16
2023-05-21T17:26:07.308Z,26.15
2023-05-21T17:28:34.313Z,26.10
2023-05-21T17:31:02.009Z,26.06
2023-05-21T17:33:29.022Z,26.04
2023-05-21T17:35:57.258Z,26.05
2023-05-21T17:38:24.322Z,26.05
2023-05-21T17:40:51.256Z,25.90
2023-05-21T17:43:18.271Z,25.98
2023-05-21T17:45:45.119Z,25.82
2023-05-21T17:48:12.362Z,25.82
2023-05-21T17:50:39.320Z,25.72
2023-05-21T17:53:06.142Z,25.57
2023-05-21T17:55:33.040Z,25.55
2023-05-21T17:58:00.133Z,25.51
2023-05-21T18:00:27.111Z,25.54
2023-05-21T18:02:54.051Z,25.58
2023-05-21T18:05:21.212Z,25.57
2023-05-21T18:07:48.417Z,25.53
2023-05-21T18:10:15.719Z,25.47
2023-05-21T18:12:42.577Z,25.40
2023-05-21T18:15:10.184Z,25.43
2023-05-21T18:17:37.100Z,25.35
2023-05-21T18:20:05.372Z,25.33
2023-05-21T18:22:32.320Z,25.23
2023-05-21T18:24:59.223Z,25.23
2023-05-21T18:27:26.251Z,25.24
2023-05-21T18:29:53.227Z,25.12
2023-05-21T18:32:20.420Z,25.17
2023-05-21T18:34:48.640Z,25.12
2023-05-21T18:37:17.310Z,25.07
2023-05-21T18:39:44.216Z,24.95
2023-05-21T18:42:13.326Z,24.89
2023-05-21T18:44:41.164Z,24.97
2023-05-21T18:47:08.287Z,24.95
2023-05-21T18:49:36.553Z,24.81
2023-05-21T18:52:04.474Z,24.85
2023-05-21T18:54:31.445Z,24.87
2023-05-21T18:57:00.691Z,24.78
2023-05-21T18:59:28.996Z,24.59
2023-05-21T19:01:55.940Z,24.56
2023-05-21T19:04:22.993Z,24.63
2023-05-21T19:06:53.467Z,24.73
2023-05-21T19:09:20.250Z,24.55
2023-05-21T19:11:47.109Z,24.53
2023-05-21T19:14:14.007Z,24.63
2023-05-21T19:16:41.200Z,24.56
2023-05-21T19:19:08.215Z,24.54
2023-05-21T19:21:35.112Z,24.48
2023-05-21T19:24:03.587Z,24.49
2023-05-21T19:26:31.867Z,24.57
2023-05-21T19:28:58.702Z,24.48
2023-05-21T19:31:26.544Z,24.41
2023-05-21T19:33:53.602Z,24.41
2023-05-21T19:36:21.263Z,24.25
2023-05-21T19:38:49.175Z,24.12
2023-05-21T19:41:17.061Z,24.11
2023-05-21T19:43:44.977Z,24.13
2023-05-21T19:46:12.046Z,24.20
2023-05-21T19:48:38.952Z,24.17
2023-05-21T19:51:05.931Z,24.24
2023-05-21T19:53:32.870Z,24.05
2023-05-21T19:56:00.183Z,24.07
2023-05-21T19:58:29.767Z,24.08
2023-05-21T20:00:58.683Z,24.06
2023-05-21T20:03:34.519Z,24.06
2023-05-21T20:06:03.019Z,24.09
2023-05-21T20:08:30.993Z,24.09
2023-05-21T20:10:58.001Z,24.02
2023-05-21T20:13:24.980Z,23.93
2023-05-21T20:15:52.461Z,23.81
2023-05-21T20:18:21.668Z,23.75
2023-05-21T20:20:49.788Z,23.76
2023-05-21T20:23:16.789Z,23.59
2023-05-21T20:25:43.721Z,23.57
2023-05-21T20:28:10.877Z,23.59
2023-05-21T20:30:53.717Z,23.66
2023-05-21T20:33:20.690Z,23.41
2023-05-21T20:35:47.682Z,23.54
2023-05-21T20:38:16.056Z,23.53
2023-05-21T20:40:44.112Z,23.49
2023-05-21T20:43:12.290Z,23.46
2023-05-21T20:45:42.122Z,23.37
2023-05-21T20:48:10.132Z,23.35
2023-05-21T20:50:37.602Z,23.31
2023-05-21T20:53:04.884Z,23.26
2023-05-21T20:55:35.077Z,23.30
2023-05-21T20:58:05.567Z,23.37
2023-05-21T21:00:33.535Z,23.27
2023-05-21T21:03:01.435Z,23.25
2023-05-21T21:05:28.568Z,23.18
2023-05-21T21:07:56.011Z,23.17
2023-05-21T21:10:22.920Z,23.22
2023-05-21T21:12:49.860Z,23.14
2023-05-21T21:15:16.885Z,23.11
2023-05-21T21:17:43.664Z,23.03
2023-05-21T21:20:12.982Z,23.05
2023-05-21T21:22:39.865Z,23.10
2023-05-21T21:25:07.070Z,23.03
2023-05-21T21:27:34.119Z,23.06
2023-05-21T21:30:01.079Z,23.18
2023-05-21T21:32:27.956Z,23.08
2023-05-21T21:34:54.763Z,23.09
2023-05-21T21:37:21.983Z,22.88
2023-05-21T21:39:48.743Z,22.94
2023-05-21T21:42:15.843Z,23.12
2023-05-21T21:44:43.045Z,23.14
2023-05-21T21:47:10.044Z,22.98
2023-05-21T21:49:36.861Z,22.98
2023-05-21T21:52:03.788Z,22.84
2023-05-21T21:54:33.236Z,22.88
2023-05-21T21:57:00.035Z,22.72
2023-05-21T21:59:26.837Z,22.69
2023-05-21T22:01:53.629Z,22.74
2023-05-21T22:04:20.628Z,22.73
2023-05-21T22:06:48.525Z,22.71
2023-05-21T22:09:17.174Z,22.71
2023-05-21T22:11:44.221Z,22.67
2023-05-21T22:14:12.958Z,22.52
2023-05-21T22:16:41.731Z,22.63
2023-05-21T22:19:08.778Z,22.71
2023-05-21T22:21:35.680Z,22.55
2023-05-21T22:24:02.449Z,22.59
2023-05-21T22:26:29.453Z,22.54
2023-05-21T22:28:56.436Z,22.69
2023-05-21T22:31:23.247Z,22.55
2023-05-21T22:33:50.089Z,22.41
2023-05-21T22:36:16.916Z,22.39
2023-05-21T22:38:44.029Z,22.22
2023-05-21T22:41:11.317Z,22.30
2023-05-21T22:43:38.268Z,22.30
2023-05-21T22:46:05.191Z,22.25
2023-05-21T22:48:31.957Z,22.10
2023-05-21T22:50:58.893Z,22.15
2023-05-21T22:53:26.004Z,22.09
2023-05-21T22:55:53.321Z,22.17
2023-05-21T22:58:20.130Z,22.13
2023-05-21T23:00:47.431Z,21.99
2023-05-21T23:03:14.577Z,22.01
2023-05-21T23:05:41.626Z,21.71
2023-05-21T23:08:08.477Z,21.84
2023-05-21T23:10:36.015Z,21.88
2023-05-21T23:13:03.030Z,21.95
2023-05-21T23:15:29.783Z,21.76
2023-05-21T23:17:57.492Z,21.83
2023-05-21T23:20:28.013Z,21.90
2023-05-21T23:22:54.827Z,21.84
2023-05-21T23:25:21.664Z,21.80
2023-05-21T23:27:48.464Z,21.62
2023-05-21T23:30:15.381Z,21.49
2023-05-21T23:32:42.452Z,21.58
2023-05-21T23:35:10.082Z,21.65
2023-05-21T23:37:36.935Z,21.45
2023-05-21T23:40:03.984Z,21.53
2023-05-21T23:42:30.916Z,21.32
2023-05-21T23:44:57.710Z,21.44
2023-05-21T23:47:24.496Z,21.39
2023-05-21T23:49:52.534Z,21.23
2023-05-21T23:52:19.338Z,21.20
2023-05-21T23:54:46.364Z,21.19
2023-05-21T23:57:13.598Z,21.36
2023-05-21T23:59:40.744Z,21.22
